Informes METAR más Próximos

 

KSJC - San Jose, California, USA
Distancia desde EA1HNP Meteo: NE 14km
Actualización: 20/05/2024 06:53
Despejado
Despejado
 Viento del N
Viento: N 15 km/h
Temperatura: 16°C
Rocío: 6°C
Humedad: 52%
Barómetro: 1014.9 hPa
Nubes: Despejado
Visibilidad: 16 km
2024/05/20 04:53 KSJC 200453Z 01008KT 10SM CLR 16/06 A2997 RMK AO2 SLP149 T01610056 $
KNUQ - Moffett Nas/Mtn, California, USA
Distancia desde EA1HNP Meteo: N 14km
Actualización: 20/05/2024 06:55
Poco nuboso
Poco nuboso
 Viento del ONO
Viento: ONO 9 km/h
Temperatura: 15°C
Rocío: 3°C
Humedad: 45%
Barómetro: 1014.9 hPa
Nubes: Poco nuboso
Visibilidad: 16 km
Detalle de nubes: Poco nuboso 1006 m
2024/05/20 04:55 KNUQ 200455Z AUTO 30005KT 10SM FEW033 15/03 A2997 RMK AO2
 
KPAO - Palo Alto, California, USA
Distancia desde EA1HNP Meteo: NNO 23km
Actualización: 20/05/2024 05:47
Pendiente
Despejado
Despejado
 Viento del O
Viento: O 11 km/h
Temperatura: 14°C
Rocío: 6°C
Humedad: 59%
Barómetro: 1014.9 hPa
Nubes: Despejado
Visibilidad: 16 km
2024/05/20 03:47 KPAO 200347Z 26006KT 10SM SKC 14/06 A2997 RMK LAST
KRHV - San Jose/Reid, California, USA
Distancia desde EA1HNP Meteo: ENE 19km
Actualización: 20/05/2024 06:55
Despejado
Despejado
 Viento del NO
Viento: NO 11 km/h
Temperatura: 15°C
Rocío: 5°C
Humedad: 51%
Barómetro: 1015.2 hPa
Nubes: Despejado
Visibilidad: 16 km
2024/05/20 04:55 KRHV 200455Z 32006KT 10SM SKC 15/05 A2998 RMK LAST
 
KOAK - Oakland, California, USA
Distancia desde EA1HNP Meteo: NNO 50km
Actualización: 20/05/2024 06:53
Poco nuboso
Poco nuboso
 Viento del OSO
Viento: OSO 7 km/h
Temperatura: 13°C
Rocío: 9°C
Humedad: 77%
Barómetro: 1014.9 hPa
Nubes: Poco nuboso
Visibilidad: 16 km
Detalle de nubes: Poco nuboso 3048 m
2024/05/20 04:53 KOAK 200453Z 24004KT 10SM FEW100 13/09 A2997 RMK AO2 SLP149 T01280089
KSQL - San Carlos Airpo, California, USA
Distancia desde EA1HNP Meteo: NO 34km
Actualización: 20/05/2024 06:55
Despejado
Despejado
 Viento del O
Viento: O 22 km/h
Temperatura: 13°C
Rocío: 7°C
Humedad: 67%
Barómetro: 1015.2 hPa
Nubes: Despejado
Visibilidad: 11 km
2024/05/20 04:55 KSQL 200455Z AUTO 27012KT 7SM CLR 13/07 A2998 RMK AO2
 
KSFO - San Francisco, California, USA
Distancia desde EA1HNP Meteo: NO 49km
Actualización: 20/05/2024 06:56
Despejado
Despejado
 Viento del OSO
Viento: OSO 19 km/h
Temperatura: 13°C
Rocío: 8°C
Humedad: 72%
Barómetro: 1014.6 hPa
Nubes: Despejado
Visibilidad: 16 km
2024/05/20 04:56 KSFO 200456Z 25010KT 10SM CLR 13/08 A2996 RMK AO2 SLP145 T01280078 $
KE16 - San Martin, California, USA
Distancia desde EA1HNP Meteo: ESE 43km
Actualización: 20/05/2024 06:55
Muy nuboso
Muy nuboso
 Viento del ESE
Viento: ESE 19 km/h
Temperatura: 11°C
Rocío: 8°C
Humedad: 82%
Barómetro: 1016.6 hPa
Nubes: Muy nuboso
Visibilidad: 11 km
Detalle de nubes: Parcialmente nuboso 488 m
Muy nuboso 823 m
2024/05/20 04:55 KE16 200455Z AUTO 12010KT 7SM SCT016 BKN027 11/08 A3002 RMK AO2
 
KWVI - Watsonville, California, USA
Distancia desde EA1HNP Meteo: SSE 44km
Actualización: 20/05/2024 06:53
Cubierto
Cubierto
 Viento del ENE
Viento: ENE 7 km/h
Temperatura: 11°C
Rocío: 9°C
Humedad: 88%
Barómetro: 1016.6 hPa
Nubes: Cubierto
Visibilidad: 14 km
Detalle de nubes: Poco nuboso 305 m
Cubierto 457 m
2024/05/20 04:53 KWVI 200453Z AUTO 06004KT 9SM FEW010 OVC015 11/09 A3002 RMK AO2 SLP164 T01110089
KHAF - Half Moon Bay, California, USA
Distancia desde EA1HNP Meteo: ONO 50km
Actualización: 20/05/2024 06:55
Niebla, Cubierto
Niebla, Cubierto
 Viento del NO
Viento: NO 11 km/h
Temperatura: 11°C
Rocío: 9°C
Humedad: 88%
Barómetro: 1016.3 hPa
Resumen: Niebla
Nubes: Cubierto
Visibilidad: 6 km
Detalle de nubes: Cubierto 518 m
2024/05/20 04:55 KHAF 200455Z AUTO 32006KT 4SM BR OVC017 11/09 A3001 RMK AO2
 
KHWD - Hayward, California, USA
Distancia desde EA1HNP Meteo: N 44km
Actualización: 20/05/2024 06:54
Despejado
Despejado
 Viento del O
Viento: O 15 km/h
Temperatura: 14°C
Rocío: 8°C
Humedad: 67%
Barómetro: 1014.9 hPa
Nubes: Despejado
Visibilidad: 16 km
2024/05/20 04:54 KHWD 200454Z 27008KT 10SM CLR 14/08 A2997 RMK AO2 SLP158 T01390078
KLVK - Livermore, California, USA
Distancia desde EA1HNP Meteo: NNE 51km
Actualización: 20/05/2024 06:53
Despejado
Despejado
 Viento del O
Viento: O 6 km/h
Temperatura: 12°C
Rocío: 7°C
Humedad: 72%
Barómetro: 1014.2 hPa
Nubes: Despejado
Visibilidad: 16 km
2024/05/20 04:53 KLVK 200453Z 26003KT 10SM CLR 12/07 A2995 RMK AO2 SLP140 T01170067